sensor_id;sensor_type;location;lat;lon;timestamp;P1;durP1;ratioP1;P2;durP2;ratioP2
54269;SDS011;40181;51.560;13.000;2023-02-13T00:00:07;13.75;;;9.48;;
54269;SDS011;40181;51.560;13.000;2023-02-13T00:02:43;12.30;;;8.77;;
54269;SDS011;40181;51.560;13.000;2023-02-13T00:05:12;14.63;;;10.23;;
54269;SDS011;40181;51.560;13.000;2023-02-13T00:07:41;13.13;;;9.55;;
54269;SDS011;40181;51.560;13.000;2023-02-13T00:10:10;12.95;;;9.82;;
54269;SDS011;40181;51.560;13.000;2023-02-13T00:12:39;14.30;;;10.43;;
54269;SDS011;40181;51.560;13.000;2023-02-13T00:15:08;13.00;;;10.13;;
54269;SDS011;40181;51.560;13.000;2023-02-13T00:17:40;19.23;;;13.60;;
54269;SDS011;40181;51.560;13.000;2023-02-13T00:20:09;19.17;;;12.88;;
54269;SDS011;40181;51.560;13.000;2023-02-13T00:22:40;19.08;;;12.20;;
54269;SDS011;40181;51.560;13.000;2023-02-13T00:25:09;19.88;;;12.85;;
54269;SDS011;40181;51.560;13.000;2023-02-13T00:27:38;19.25;;;13.05;;
54269;SDS011;40181;51.560;13.000;2023-02-13T00:30:08;18.92;;;11.23;;
54269;SDS011;40181;51.560;13.000;2023-02-13T00:35:10;14.60;;;10.05;;
54269;SDS011;40181;51.560;13.000;2023-02-13T00:37:39;15.85;;;11.00;;
54269;SDS011;40181;51.560;13.000;2023-02-13T00:40:08;15.23;;;11.05;;
54269;SDS011;40181;51.560;13.000;2023-02-13T00:42:39;14.18;;;9.52;;
54269;SDS011;40181;51.560;13.000;2023-02-13T00:45:08;10.60;;;9.10;;
54269;SDS011;40181;51.560;13.000;2023-02-13T00:47:37;10.48;;;9.07;;
54269;SDS011;40181;51.560;13.000;2023-02-13T00:50:09;16.42;;;9.88;;
54269;SDS011;40181;51.560;13.000;2023-02-13T00:52:38;10.60;;;8.32;;
54269;SDS011;40181;51.560;13.000;2023-02-13T00:55:07;13.82;;;8.15;;
54269;SDS011;40181;51.560;13.000;2023-02-13T00:57:36;11.10;;;9.13;;
54269;SDS011;40181;51.560;13.000;2023-02-13T01:00:06;11.63;;;9.80;;
54269;SDS011;40181;51.560;13.000;2023-02-13T01:02:37;13.90;;;11.30;;
54269;SDS011;40181;51.560;13.000;2023-02-13T01:05:08;13.18;;;9.32;;
54269;SDS011;40181;51.560;13.000;2023-02-13T01:07:37;14.90;;;10.13;;
54269;SDS011;40181;51.560;13.000;2023-02-13T01:10:06;16.50;;;11.50;;
54269;SDS011;40181;51.560;13.000;2023-02-13T01:12:36;15.55;;;11.52;;
54269;SDS011;40181;51.560;13.000;2023-02-13T01:15:05;16.25;;;10.90;;
54269;SDS011;40181;51.560;13.000;2023-02-13T01:17:35;15.98;;;12.02;;
54269;SDS011;40181;51.560;13.000;2023-02-13T01:20:08;15.18;;;10.68;;
54269;SDS011;40181;51.560;13.000;2023-02-13T01:22:40;14.05;;;10.95;;
54269;SDS011;40181;51.560;13.000;2023-02-13T01:25:09;17.23;;;11.70;;
54269;SDS011;40181;51.560;13.000;2023-02-13T01:27:39;18.80;;;10.40;;
54269;SDS011;40181;51.560;13.000;2023-02-13T01:30:08;14.52;;;10.93;;
54269;SDS011;40181;51.560;13.000;2023-02-13T01:32:41;14.02;;;10.13;;
54269;SDS011;40181;51.560;13.000;2023-02-13T01:35:14;13.40;;;11.27;;
54269;SDS011;40181;51.560;13.000;2023-02-13T01:37:44;13.63;;;9.68;;
54269;SDS011;40181;51.560;13.000;2023-02-13T01:40:13;12.50;;;9.30;;
54269;SDS011;40181;51.560;13.000;2023-02-13T01:42:43;12.55;;;9.50;;
54269;SDS011;40181;51.560;13.000;2023-02-13T01:45:18;13.63;;;9.35;;
54269;SDS011;40181;51.560;13.000;2023-02-13T01:47:53;13.45;;;9.93;;
54269;SDS011;40181;51.560;13.000;2023-02-13T01:50:31;13.25;;;10.23;;
54269;SDS011;40181;51.560;13.000;2023-02-13T01:53:06;14.07;;;9.25;;
54269;SDS011;40181;51.560;13.000;2023-02-13T01:55:43;14.25;;;9.40;;
54269;SDS011;40181;51.560;13.000;2023-02-13T01:58:20;14.87;;;10.03;;
54269;SDS011;40181;51.560;13.000;2023-02-13T02:00:53;12.18;;;9.55;;
54269;SDS011;40181;51.560;13.000;2023-02-13T02:03:23;14.60;;;9.70;;
54269;SDS011;40181;51.560;13.000;2023-02-13T02:05:59;11.55;;;8.68;;
54269;SDS011;40181;51.560;13.000;2023-02-13T02:08:30;14.38;;;9.32;;
54269;SDS011;40181;51.560;13.000;2023-02-13T02:11:04;12.07;;;7.72;;
54269;SDS011;40181;51.560;13.000;2023-02-13T02:13:38;13.07;;;9.60;;
54269;SDS011;40181;51.560;13.000;2023-02-13T02:16:07;11.20;;;8.52;;
54269;SDS011;40181;51.560;13.000;2023-02-13T02:18:37;10.30;;;8.07;;
54269;SDS011;40181;51.560;13.000;2023-02-13T02:24:25;11.57;;;8.02;;
54269;SDS011;40181;51.560;13.000;2023-02-13T02:30:44;13.82;;;9.20;;
54269;SDS011;40181;51.560;13.000;2023-02-13T02:33:48;10.00;;;8.10;;
54269;SDS011;40181;51.560;13.000;2023-02-13T02:36:42;14.63;;;9.52;;
54269;SDS011;40181;51.560;13.000;2023-02-13T02:39:29;13.38;;;8.75;;
54269;SDS011;40181;51.560;13.000;2023-02-13T02:42:14;9.23;;;7.80;;
54269;SDS011;40181;51.560;13.000;2023-02-13T02:44:54;10.35;;;8.15;;
54269;SDS011;40181;51.560;13.000;2023-02-13T02:47:32;12.20;;;7.53;;
54269;SDS011;40181;51.560;13.000;2023-02-13T02:50:29;8.55;;;6.47;;
54269;SDS011;40181;51.560;13.000;2023-02-13T02:53:07;9.75;;;6.60;;
54269;SDS011;40181;51.560;13.000;2023-02-13T02:55:49;9.02;;;7.40;;
54269;SDS011;40181;51.560;13.000;2023-02-13T02:58:27;9.18;;;7.22;;
54269;SDS011;40181;51.560;13.000;2023-02-13T03:01:16;9.90;;;6.78;;
54269;SDS011;40181;51.560;13.000;2023-02-13T03:04:01;11.30;;;7.00;;
54269;SDS011;40181;51.560;13.000;2023-02-13T03:06:48;11.27;;;8.45;;
54269;SDS011;40181;51.560;13.000;2023-02-13T03:09:22;9.32;;;7.47;;
54269;SDS011;40181;51.560;13.000;2023-02-13T03:12:08;12.07;;;7.93;;
54269;SDS011;40181;51.560;13.000;2023-02-13T03:14:52;10.80;;;7.70;;
54269;SDS011;40181;51.560;13.000;2023-02-13T03:17:21;8.98;;;7.32;;
54269;SDS011;40181;51.560;13.000;2023-02-13T03:20:07;8.43;;;6.80;;
54269;SDS011;40181;51.560;13.000;2023-02-13T03:23:05;9.90;;;6.80;;
54269;SDS011;40181;51.560;13.000;2023-02-13T03:25:46;11.25;;;7.75;;
54269;SDS011;40181;51.560;13.000;2023-02-13T03:28:42;10.48;;;6.88;;
54269;SDS011;40181;51.560;13.000;2023-02-13T03:31:35;8.13;;;6.15;;
54269;SDS011;40181;51.560;13.000;2023-02-13T03:34:18;8.98;;;6.72;;
54269;SDS011;40181;51.560;13.000;2023-02-13T03:37:11;11.15;;;7.07;;
54269;SDS011;40181;51.560;13.000;2023-02-13T03:40:00;11.27;;;7.10;;
54269;SDS011;40181;51.560;13.000;2023-02-13T03:42:34;8.52;;;6.63;;
54269;SDS011;40181;51.560;13.000;2023-02-13T03:45:11;10.85;;;6.40;;
54269;SDS011;40181;51.560;13.000;2023-02-13T03:47:57;8.45;;;6.80;;
54269;SDS011;40181;51.560;13.000;2023-02-13T03:50:33;8.98;;;6.05;;
54269;SDS011;40181;51.560;13.000;2023-02-13T03:53:05;10.45;;;6.55;;
54269;SDS011;40181;51.560;13.000;2023-02-13T03:55:41;7.63;;;5.97;;
54269;SDS011;40181;51.560;13.000;2023-02-13T03:58:27;9.77;;;6.72;;
54269;SDS011;40181;51.560;13.000;2023-02-13T04:01:13;8.88;;;6.18;;
54269;SDS011;40181;51.560;13.000;2023-02-13T04:03:47;7.68;;;6.50;;
54269;SDS011;40181;51.560;13.000;2023-02-13T04:06:24;9.05;;;5.95;;
54269;SDS011;40181;51.560;13.000;2023-02-13T04:08:58;8.60;;;7.40;;
54269;SDS011;40181;51.560;13.000;2023-02-13T04:11:32;7.20;;;6.45;;
54269;SDS011;40181;51.560;13.000;2023-02-13T04:14:06;8.20;;;6.20;;
54269;SDS011;40181;51.560;13.000;2023-02-13T04:16:43;8.13;;;6.85;;
54269;SDS011;40181;51.560;13.000;2023-02-13T04:19:16;11.43;;;8.02;;
54269;SDS011;40181;51.560;13.000;2023-02-13T04:21:48;8.57;;;7.45;;
54269;SDS011;40181;51.560;13.000;2023-02-13T04:24:24;12.30;;;7.55;;
54269;SDS011;40181;51.560;13.000;2023-02-13T04:26:56;10.68;;;8.48;;
54269;SDS011;40181;51.560;13.000;2023-02-13T04:29:26;13.98;;;6.72;;
54269;SDS011;40181;51.560;13.000;2023-02-13T04:31:55;10.68;;;7.78;;
54269;SDS011;40181;51.560;13.000;2023-02-13T04:34:24;13.10;;;8.50;;
54269;SDS011;40181;51.560;13.000;2023-02-13T04:36:53;15.52;;;9.45;;
54269;SDS011;40181;51.560;13.000;2023-02-13T04:39:22;12.57;;;9.90;;
54269;SDS011;40181;51.560;13.000;2023-02-13T04:41:51;11.70;;;7.60;;
54269;SDS011;40181;51.560;13.000;2023-02-13T04:44:22;10.68;;;7.70;;
54269;SDS011;40181;51.560;13.000;2023-02-13T04:46:51;10.88;;;8.77;;
54269;SDS011;40181;51.560;13.000;2023-02-13T04:49:20;11.18;;;8.20;;
54269;SDS011;40181;51.560;13.000;2023-02-13T04:51:49;9.43;;;7.35;;
54269;SDS011;40181;51.560;13.000;2023-02-13T04:54:21;11.52;;;7.32;;
54269;SDS011;40181;51.560;13.000;2023-02-13T04:56:50;11.18;;;7.45;;
54269;SDS011;40181;51.560;13.000;2023-02-13T04:59:19;9.10;;;7.75;;
54269;SDS011;40181;51.560;13.000;2023-02-13T05:01:50;10.57;;;9.30;;
54269;SDS011;40181;51.560;13.000;2023-02-13T05:04:19;10.93;;;8.48;;
54269;SDS011;40181;51.560;13.000;2023-02-13T05:06:49;14.40;;;10.13;;
54269;SDS011;40181;51.560;13.000;2023-02-13T05:09:18;13.68;;;9.00;;
54269;SDS011;40181;51.560;13.000;2023-02-13T05:11:49;9.82;;;7.82;;
54269;SDS011;40181;51.560;13.000;2023-02-13T05:14:19;11.55;;;8.10;;
54269;SDS011;40181;51.560;13.000;2023-02-13T05:16:51;8.00;;;5.47;;
54269;SDS011;40181;51.560;13.000;2023-02-13T05:19:20;9.85;;;7.10;;
54269;SDS011;40181;51.560;13.000;2023-02-13T05:21:49;14.70;;;8.45;;
54269;SDS011;40181;51.560;13.000;2023-02-13T05:24:31;11.15;;;7.20;;
54269;SDS011;40181;51.560;13.000;2023-02-13T05:27:00;8.77;;;7.53;;
54269;SDS011;40181;51.560;13.000;2023-02-13T05:29:32;9.48;;;7.70;;
54269;SDS011;40181;51.560;13.000;2023-02-13T05:32:01;11.82;;;8.52;;
54269;SDS011;40181;51.560;13.000;2023-02-13T05:34:30;16.00;;;8.48;;
54269;SDS011;40181;51.560;13.000;2023-02-13T05:36:59;13.18;;;9.15;;
54269;SDS011;40181;51.560;13.000;2023-02-13T05:39:28;16.92;;;9.15;;
54269;SDS011;40181;51.560;13.000;2023-02-13T05:41:57;12.45;;;8.38;;
54269;SDS011;40181;51.560;13.000;2023-02-13T05:44:28;13.57;;;8.77;;
54269;SDS011;40181;51.560;13.000;2023-02-13T05:47:00;11.05;;;7.90;;
54269;SDS011;40181;51.560;13.000;2023-02-13T05:49:29;9.25;;;7.20;;
54269;SDS011;40181;51.560;13.000;2023-02-13T05:51:58;8.85;;;7.18;;
54269;SDS011;40181;51.560;13.000;2023-02-13T05:54:27;11.07;;;8.00;;
54269;SDS011;40181;51.560;13.000;2023-02-13T05:56:56;10.52;;;7.18;;
54269;SDS011;40181;51.560;13.000;2023-02-13T05:59:25;9.70;;;7.45;;
54269;SDS011;40181;51.560;13.000;2023-02-13T06:01:57;7.93;;;6.35;;
54269;SDS011;40181;51.560;13.000;2023-02-13T06:04:26;15.05;;;11.85;;
54269;SDS011;40181;51.560;13.000;2023-02-13T06:06:55;11.10;;;8.65;;
54269;SDS011;40181;51.560;13.000;2023-02-13T06:09:24;11.85;;;6.85;;
54269;SDS011;40181;51.560;13.000;2023-02-13T06:11:53;14.68;;;9.73;;
54269;SDS011;40181;51.560;13.000;2023-02-13T06:14:22;8.63;;;6.45;;
54269;SDS011;40181;51.560;13.000;2023-02-13T06:16:51;11.07;;;8.63;;
54269;SDS011;40181;51.560;13.000;2023-02-13T06:19:23;9.95;;;8.35;;
54269;SDS011;40181;51.560;13.000;2023-02-13T06:21:52;10.00;;;8.40;;
54269;SDS011;40181;51.560;13.000;2023-02-13T06:24:21;11.98;;;8.50;;
54269;SDS011;40181;51.560;13.000;2023-02-13T06:26:50;12.07;;;8.82;;
54269;SDS011;40181;51.560;13.000;2023-02-13T06:29:19;13.70;;;8.68;;
54269;SDS011;40181;51.560;13.000;2023-02-13T06:31:48;12.32;;;8.40;;
54269;SDS011;40181;51.560;13.000;2023-02-13T06:34:17;14.90;;;8.82;;
54269;SDS011;40181;51.560;13.000;2023-02-13T06:36:48;15.63;;;10.50;;
54269;SDS011;40181;51.560;13.000;2023-02-13T06:39:17;11.27;;;8.88;;
54269;SDS011;40181;51.560;13.000;2023-02-13T06:41:46;9.15;;;6.75;;
54269;SDS011;40181;51.560;13.000;2023-02-13T06:44:15;10.45;;;7.85;;
54269;SDS011;40181;51.560;13.000;2023-02-13T06:46:44;10.63;;;7.35;;
54269;SDS011;40181;51.560;13.000;2023-02-13T06:49:13;10.63;;;7.30;;
54269;SDS011;40181;51.560;13.000;2023-02-13T06:51:42;8.70;;;7.05;;
54269;SDS011;40181;51.560;13.000;2023-02-13T06:54:14;12.98;;;9.93;;
54269;SDS011;40181;51.560;13.000;2023-02-13T06:56:43;10.48;;;7.63;;
54269;SDS011;40181;51.560;13.000;2023-02-13T06:59:12;13.68;;;8.48;;
54269;SDS011;40181;51.560;13.000;2023-02-13T07:01:41;9.32;;;6.80;;
54269;SDS011;40181;51.560;13.000;2023-02-13T07:04:10;10.65;;;7.45;;
54269;SDS011;40181;51.560;13.000;2023-02-13T07:06:39;7.75;;;5.40;;
54269;SDS011;40181;51.560;13.000;2023-02-13T07:09:08;9.27;;;7.75;;
54269;SDS011;40181;51.560;13.000;2023-02-13T07:11:40;9.73;;;7.32;;
54269;SDS011;40181;51.560;13.000;2023-02-13T07:14:09;11.00;;;7.25;;
54269;SDS011;40181;51.560;13.000;2023-02-13T07:16:38;13.25;;;8.27;;
54269;SDS011;40181;51.560;13.000;2023-02-13T07:19:07;10.73;;;7.00;;
54269;SDS011;40181;51.560;13.000;2023-02-13T07:21:36;23.52;;;9.60;;
54269;SDS011;40181;51.560;13.000;2023-02-13T07:24:05;10.55;;;7.47;;
54269;SDS011;40181;51.560;13.000;2023-02-13T07:26:35;14.53;;;8.43;;
54269;SDS011;40181;51.560;13.000;2023-02-13T07:29:06;8.25;;;6.93;;
54269;SDS011;40181;51.560;13.000;2023-02-13T07:31:35;9.57;;;8.23;;
54269;SDS011;40181;51.560;13.000;2023-02-13T07:34:04;13.48;;;7.53;;
54269;SDS011;40181;51.560;13.000;2023-02-13T07:36:33;9.00;;;7.88;;
54269;SDS011;40181;51.560;13.000;2023-02-13T07:39:02;10.60;;;7.65;;
54269;SDS011;40181;51.560;13.000;2023-02-13T07:41:31;10.20;;;7.05;;
54269;SDS011;40181;51.560;13.000;2023-02-13T07:44:00;12.13;;;8.10;;
54269;SDS011;40181;51.560;13.000;2023-02-13T07:46:32;11.32;;;8.20;;
54269;SDS011;40181;51.560;13.000;2023-02-13T07:49:01;10.48;;;7.93;;
54269;SDS011;40181;51.560;13.000;2023-02-13T07:51:30;13.75;;;9.68;;
54269;SDS011;40181;51.560;13.000;2023-02-13T07:54:00;15.35;;;9.30;;
54269;SDS011;40181;51.560;13.000;2023-02-13T07:56:29;11.48;;;8.82;;
54269;SDS011;40181;51.560;13.000;2023-02-13T07:58:58;15.23;;;8.63;;
54269;SDS011;40181;51.560;13.000;2023-02-13T08:01:27;12.48;;;8.52;;
54269;SDS011;40181;51.560;13.000;2023-02-13T08:03:59;12.80;;;7.50;;
54269;SDS011;40181;51.560;13.000;2023-02-13T08:06:28;16.98;;;9.52;;
54269;SDS011;40181;51.560;13.000;2023-02-13T08:08:57;11.13;;;9.05;;
54269;SDS011;40181;51.560;13.000;2023-02-13T08:11:39;10.20;;;7.43;;
54269;SDS011;40181;51.560;13.000;2023-02-13T08:14:22;10.32;;;6.82;;
54269;SDS011;40181;51.560;13.000;2023-02-13T08:16:53;8.65;;;6.93;;
54269;SDS011;40181;51.560;13.000;2023-02-13T08:19:25;9.88;;;7.50;;
54269;SDS011;40181;51.560;13.000;2023-02-13T08:21:54;12.43;;;7.05;;
54269;SDS011;40181;51.560;13.000;2023-02-13T08:24:24;8.35;;;6.50;;
54269;SDS011;40181;51.560;13.000;2023-02-13T08:26:54;7.93;;;6.38;;
54269;SDS011;40181;51.560;13.000;2023-02-13T08:29:23;8.07;;;6.00;;
54269;SDS011;40181;51.560;13.000;2023-02-13T08:31:52;9.57;;;5.88;;
54269;SDS011;40181;51.560;13.000;2023-02-13T08:34:21;9.50;;;7.05;;
54269;SDS011;40181;51.560;13.000;2023-02-13T08:36:53;11.02;;;7.20;;
54269;SDS011;40181;51.560;13.000;2023-02-13T08:39:22;9.13;;;5.90;;
54269;SDS011;40181;51.560;13.000;2023-02-13T08:41:51;10.93;;;6.53;;
54269;SDS011;40181;51.560;13.000;2023-02-13T08:44:19;7.13;;;5.18;;
54269;SDS011;40181;51.560;13.000;2023-02-13T08:46:49;10.55;;;5.90;;
54269;SDS011;40181;51.560;13.000;2023-02-13T08:49:18;6.47;;;4.72;;
54269;SDS011;40181;51.560;13.000;2023-02-13T08:51:50;9.85;;;7.38;;
54269;SDS011;40181;51.560;13.000;2023-02-13T08:54:19;8.25;;;6.03;;
54269;SDS011;40181;51.560;13.000;2023-02-13T08:56:48;9.43;;;5.47;;
54269;SDS011;40181;51.560;13.000;2023-02-13T08:59:17;9.15;;;6.07;;
54269;SDS011;40181;51.560;13.000;2023-02-13T09:01:46;7.30;;;5.63;;
54269;SDS011;40181;51.560;13.000;2023-02-13T09:04:15;8.30;;;5.03;;
54269;SDS011;40181;51.560;13.000;2023-02-13T09:06:44;6.13;;;4.30;;
54269;SDS011;40181;51.560;13.000;2023-02-13T09:09:16;8.68;;;5.75;;
54269;SDS011;40181;51.560;13.000;2023-02-13T09:11:45;6.70;;;5.57;;
54269;SDS011;40181;51.560;13.000;2023-02-13T09:14:15;7.18;;;5.43;;
54269;SDS011;40181;51.560;13.000;2023-02-13T09:16:44;6.78;;;4.97;;
54269;SDS011;40181;51.560;13.000;2023-02-13T09:19:13;8.43;;;5.03;;
54269;SDS011;40181;51.560;13.000;2023-02-13T09:21:43;6.95;;;4.18;;
54269;SDS011;40181;51.560;13.000;2023-02-13T09:24:12;6.97;;;4.25;;
54269;SDS011;40181;51.560;13.000;2023-02-13T09:26:43;7.85;;;5.00;;
54269;SDS011;40181;51.560;13.000;2023-02-13T09:29:12;7.68;;;5.35;;
54269;SDS011;40181;51.560;13.000;2023-02-13T09:31:41;5.75;;;4.40;;
54269;SDS011;40181;51.560;13.000;2023-02-13T09:34:10;7.10;;;5.28;;
54269;SDS011;40181;51.560;13.000;2023-02-13T09:36:39;9.30;;;5.63;;
54269;SDS011;40181;51.560;13.000;2023-02-13T09:39:08;5.57;;;4.40;;
54269;SDS011;40181;51.560;13.000;2023-02-13T09:41:40;4.82;;;3.88;;
54269;SDS011;40181;51.560;13.000;2023-02-13T09:44:12;8.40;;;5.53;;
54269;SDS011;40181;51.560;13.000;2023-02-13T09:46:57;5.80;;;4.03;;
54269;SDS011;40181;51.560;13.000;2023-02-13T09:49:29;12.32;;;3.60;;
54269;SDS011;40181;51.560;13.000;2023-02-13T09:52:02;6.82;;;4.63;;
54269;SDS011;40181;51.560;13.000;2023-02-13T09:54:31;6.97;;;5.20;;
54269;SDS011;40181;51.560;13.000;2023-02-13T09:57:05;5.63;;;4.22;;
54269;SDS011;40181;51.560;13.000;2023-02-13T09:59:44;5.35;;;3.45;;
54269;SDS011;40181;51.560;13.000;2023-02-13T10:02:32;5.03;;;3.20;;
54269;SDS011;40181;51.560;13.000;2023-02-13T10:05:33;8.68;;;4.45;;
54269;SDS011;40181;51.560;13.000;2023-02-13T10:08:17;4.38;;;3.47;;
54269;SDS011;40181;51.560;13.000;2023-02-13T10:10:59;4.47;;;3.13;;
54269;SDS011;40181;51.560;13.000;2023-02-13T10:13:47;6.05;;;4.53;;
54269;SDS011;40181;51.560;13.000;2023-02-13T10:16:28;4.57;;;3.22;;
54269;SDS011;40181;51.560;13.000;2023-02-13T10:19:04;5.38;;;3.72;;
54269;SDS011;40181;51.560;13.000;2023-02-13T10:21:50;4.03;;;2.83;;
54269;SDS011;40181;51.560;13.000;2023-02-13T10:24:25;4.47;;;3.33;;
54269;SDS011;40181;51.560;13.000;2023-02-13T10:27:01;5.80;;;3.97;;
54269;SDS011;40181;51.560;13.000;2023-02-13T10:29:47;3.08;;;2.72;;
54269;SDS011;40181;51.560;13.000;2023-02-13T10:32:38;4.22;;;2.80;;
54269;SDS011;40181;51.560;13.000;2023-02-13T10:35:18;8.30;;;4.00;;
54269;SDS011;40181;51.560;13.000;2023-02-13T10:37:51;4.55;;;3.40;;
54269;SDS011;40181;51.560;13.000;2023-02-13T10:40:27;4.72;;;3.42;;
54269;SDS011;40181;51.560;13.000;2023-02-13T10:43:03;3.67;;;2.83;;
54269;SDS011;40181;51.560;13.000;2023-02-13T10:45:46;3.70;;;2.88;;
54269;SDS011;40181;51.560;13.000;2023-02-13T10:48:31;5.47;;;3.22;;
54269;SDS011;40181;51.560;13.000;2023-02-13T10:51:18;4.35;;;3.17;;
54269;SDS011;40181;51.560;13.000;2023-02-13T10:54:12;6.88;;;3.30;;
54269;SDS011;40181;51.560;13.000;2023-02-13T10:56:55;4.60;;;2.92;;
54269;SDS011;40181;51.560;13.000;2023-02-13T10:59:38;5.18;;;3.58;;
54269;SDS011;40181;51.560;13.000;2023-02-13T11:02:24;4.15;;;2.55;;
54269;SDS011;40181;51.560;13.000;2023-02-13T11:04:57;5.63;;;3.20;;
54269;SDS011;40181;51.560;13.000;2023-02-13T11:07:29;4.35;;;3.33;;
54269;SDS011;40181;51.560;13.000;2023-02-13T11:10:02;4.07;;;3.03;;
54269;SDS011;40181;51.560;13.000;2023-02-13T11:12:40;3.60;;;2.72;;
54269;SDS011;40181;51.560;13.000;2023-02-13T11:15:19;4.25;;;2.95;;
54269;SDS011;40181;51.560;13.000;2023-02-13T11:17:54;4.78;;;2.38;;
54269;SDS011;40181;51.560;13.000;2023-02-13T11:20:30;5.45;;;3.80;;
54269;SDS011;40181;51.560;13.000;2023-02-13T11:23:14;4.03;;;2.92;;
54269;SDS011;40181;51.560;13.000;2023-02-13T11:25:56;4.68;;;3.22;;
54269;SDS011;40181;51.560;13.000;2023-02-13T11:28:33;3.78;;;2.95;;
54269;SDS011;40181;51.560;13.000;2023-02-13T11:31:10;7.18;;;2.95;;
54269;SDS011;40181;51.560;13.000;2023-02-13T11:33:49;4.18;;;3.08;;
54269;SDS011;40181;51.560;13.000;2023-02-13T11:36:22;5.65;;;4.00;;
54269;SDS011;40181;51.560;13.000;2023-02-13T11:39:01;4.47;;;3.42;;
54269;SDS011;40181;51.560;13.000;2023-02-13T11:41:36;6.30;;;3.30;;
54269;SDS011;40181;51.560;13.000;2023-02-13T11:44:17;5.93;;;3.67;;
54269;SDS011;40181;51.560;13.000;2023-02-13T11:46:51;6.75;;;3.47;;
54269;SDS011;40181;51.560;13.000;2023-02-13T11:49:25;2.72;;;2.25;;
54269;SDS011;40181;51.560;13.000;2023-02-13T11:51:58;5.22;;;3.47;;
54269;SDS011;40181;51.560;13.000;2023-02-13T11:54:30;5.10;;;3.85;;
54269;SDS011;40181;51.560;13.000;2023-02-13T11:57:14;12.25;;;3.10;;
54269;SDS011;40181;51.560;13.000;2023-02-13T11:59:49;3.13;;;2.17;;
54269;SDS011;40181;51.560;13.000;2023-02-13T12:02:20;3.70;;;2.35;;
54269;SDS011;40181;51.560;13.000;2023-02-13T12:04:54;3.83;;;2.45;;
54269;SDS011;40181;51.560;13.000;2023-02-13T12:07:44;3.20;;;2.53;;
54269;SDS011;40181;51.560;13.000;2023-02-13T12:12:51;3.67;;;3.00;;
54269;SDS011;40181;51.560;13.000;2023-02-13T12:15:23;5.00;;;2.72;;
54269;SDS011;40181;51.560;13.000;2023-02-13T12:17:58;4.38;;;3.22;;
54269;SDS011;40181;51.560;13.000;2023-02-13T12:20:38;3.42;;;2.88;;
54269;SDS011;40181;51.560;13.000;2023-02-13T12:23:24;4.43;;;3.00;;
54269;SDS011;40181;51.560;13.000;2023-02-13T12:26:08;3.13;;;2.22;;
54269;SDS011;40181;51.560;13.000;2023-02-13T12:28:57;3.70;;;2.58;;
54269;SDS011;40181;51.560;13.000;2023-02-13T12:31:58;3.28;;;2.70;;
54269;SDS011;40181;51.560;13.000;2023-02-13T12:38:00;3.25;;;2.17;;
54269;SDS011;40181;51.560;13.000;2023-02-13T12:40:41;3.25;;;2.60;;
54269;SDS011;40181;51.560;13.000;2023-02-13T12:43:40;5.93;;;3.38;;
54269;SDS011;40181;51.560;13.000;2023-02-13T12:46:36;4.30;;;3.22;;
54269;SDS011;40181;51.560;13.000;2023-02-13T12:49:20;5.70;;;4.22;;
54269;SDS011;40181;51.560;13.000;2023-02-13T12:52:25;4.22;;;2.88;;
54269;SDS011;40181;51.560;13.000;2023-02-13T12:55:18;3.25;;;2.55;;
54269;SDS011;40181;51.560;13.000;2023-02-13T13:00:59;2.85;;;2.40;;
54269;SDS011;40181;51.560;13.000;2023-02-13T13:03:41;2.83;;;2.53;;
54269;SDS011;40181;51.560;13.000;2023-02-13T13:06:27;6.57;;;3.17;;
54269;SDS011;40181;51.560;13.000;2023-02-13T13:09:27;3.38;;;2.50;;
54269;SDS011;40181;51.560;13.000;2023-02-13T13:12:18;3.70;;;2.70;;
54269;SDS011;40181;51.560;13.000;2023-02-13T13:15:07;4.18;;;2.60;;
54269;SDS011;40181;51.560;13.000;2023-02-13T13:17:52;3.88;;;3.17;;
54269;SDS011;40181;51.560;13.000;2023-02-13T13:20:47;3.53;;;2.50;;
54269;SDS011;40181;51.560;13.000;2023-02-13T13:23:30;2.78;;;2.10;;
54269;SDS011;40181;51.560;13.000;2023-02-13T13:26:04;3.80;;;3.20;;
54269;SDS011;40181;51.560;13.000;2023-02-13T13:28:50;4.72;;;3.30;;
54269;SDS011;40181;51.560;13.000;2023-02-13T13:31:23;6.15;;;3.83;;
54269;SDS011;40181;51.560;13.000;2023-02-13T13:33:55;8.13;;;3.88;;
54269;SDS011;40181;51.560;13.000;2023-02-13T13:36:35;3.40;;;2.70;;
54269;SDS011;40181;51.560;13.000;2023-02-13T13:39:19;5.10;;;3.33;;
54269;SDS011;40181;51.560;13.000;2023-02-13T13:42:03;5.03;;;3.67;;
54269;SDS011;40181;51.560;13.000;2023-02-13T13:44:51;4.35;;;3.72;;
54269;SDS011;40181;51.560;13.000;2023-02-13T13:47:43;3.90;;;2.93;;
54269;SDS011;40181;51.560;13.000;2023-02-13T13:50:34;4.03;;;3.03;;
54269;SDS011;40181;51.560;13.000;2023-02-13T13:53:09;3.30;;;2.50;;
54269;SDS011;40181;51.560;13.000;2023-02-13T14:01:25;3.45;;;2.50;;
54269;SDS011;40181;51.560;13.000;2023-02-13T14:03:56;3.70;;;2.63;;
54269;SDS011;40181;51.560;13.000;2023-02-13T14:06:28;2.67;;;2.17;;
54269;SDS011;40181;51.560;13.000;2023-02-13T14:09:41;6.63;;;3.08;;
54269;SDS011;40181;51.560;13.000;2023-02-13T14:15:47;3.55;;;2.72;;
54269;SDS011;40181;51.560;13.000;2023-02-13T14:18:20;4.25;;;2.53;;
54269;SDS011;40181;51.560;13.000;2023-02-13T14:20:51;3.72;;;2.67;;
54269;SDS011;40181;51.560;13.000;2023-02-13T14:23:25;2.85;;;2.00;;
54269;SDS011;40181;51.560;13.000;2023-02-13T14:26:11;4.63;;;2.53;;
54269;SDS011;40181;51.560;13.000;2023-02-13T14:28:58;4.13;;;3.22;;
54269;SDS011;40181;51.560;13.000;2023-02-13T14:32:12;5.45;;;2.78;;
54269;SDS011;40181;51.560;13.000;2023-02-13T14:37:23;4.93;;;2.90;;
54269;SDS011;40181;51.560;13.000;2023-02-13T14:40:09;6.03;;;2.70;;
54269;SDS011;40181;51.560;13.000;2023-02-13T14:43:06;3.15;;;2.58;;
54269;SDS011;40181;51.560;13.000;2023-02-13T14:45:49;3.63;;;2.87;;
54269;SDS011;40181;51.560;13.000;2023-02-13T14:48:27;3.33;;;2.58;;
54269;SDS011;40181;51.560;13.000;2023-02-13T14:51:04;3.55;;;2.38;;
54269;SDS011;40181;51.560;13.000;2023-02-13T14:53:37;4.07;;;3.03;;
54269;SDS011;40181;51.560;13.000;2023-02-13T14:56:18;2.83;;;2.33;;
54269;SDS011;40181;51.560;13.000;2023-02-13T14:58:50;4.30;;;3.17;;
54269;SDS011;40181;51.560;13.000;2023-02-13T15:01:25;3.97;;;2.78;;
54269;SDS011;40181;51.560;13.000;2023-02-13T15:04:02;3.92;;;2.60;;
54269;SDS011;40181;51.560;13.000;2023-02-13T15:06:40;4.38;;;3.00;;
54269;SDS011;40181;51.560;13.000;2023-02-13T15:09:19;4.18;;;3.15;;
54269;SDS011;40181;51.560;13.000;2023-02-13T15:11:58;4.68;;;2.70;;
54269;SDS011;40181;51.560;13.000;2023-02-13T15:14:31;3.95;;;2.30;;
54269;SDS011;40181;51.560;13.000;2023-02-13T15:17:03;3.72;;;2.72;;
54269;SDS011;40181;51.560;13.000;2023-02-13T15:19:43;4.43;;;2.92;;
54269;SDS011;40181;51.560;13.000;2023-02-13T15:22:16;3.08;;;1.85;;
54269;SDS011;40181;51.560;13.000;2023-02-13T15:24:48;5.63;;;3.33;;
54269;SDS011;40181;51.560;13.000;2023-02-13T15:27:19;4.97;;;3.70;;
54269;SDS011;40181;51.560;13.000;2023-02-13T15:29:56;4.70;;;3.80;;
54269;SDS011;40181;51.560;13.000;2023-02-13T15:32:29;3.22;;;2.28;;
54269;SDS011;40181;51.560;13.000;2023-02-13T15:35:05;8.77;;;2.53;;
54269;SDS011;40181;51.560;13.000;2023-02-13T15:37:48;5.82;;;3.10;;
54269;SDS011;40181;51.560;13.000;2023-02-13T15:40:24;3.72;;;2.78;;
54269;SDS011;40181;51.560;13.000;2023-02-13T15:42:56;6.93;;;2.97;;
54269;SDS011;40181;51.560;13.000;2023-02-13T15:45:27;2.45;;;2.15;;